Terminal Aerodrome Forecast
Issued by NWS

Home | Current Version | Previous Version | Text Only | Print | Product List | Glossary On
Versions: 1 2 3 4 5 6 7 8 9 10 11 12 13 14 15 16 17 18 19 20 21 22 23 24 25 26
000
FTUS43 KDLH 260400 AAA
TAFHIB
TAF AMD
KHIB 260410Z 2604/2624 19003KT P6SM OVC016
     FM260900 01005KT P6SM -SN SCT009 OVC018
     FM261200 36007KT 5SM -SN BKN012 OVC035
     FM261500 36007KT 2SM -SN OVC015
     FM262000 35012KT P6SM -SN OVC025=

USA.gov is the U.S. government's official web portal to all federal, state and local government web resources and services.